sensor_id;sensor_type;location;lat;lon;timestamp;temperature;humidity
25092;DHT22;13082;52.374;4.946;2023-06-14T00:00:18;21.20;99.90
25092;DHT22;13082;52.374;4.946;2023-06-14T00:02:45;21.20;99.90
25092;DHT22;13082;52.374;4.946;2023-06-14T00:05:11;21.20;99.90
25092;DHT22;13082;52.374;4.946;2023-06-14T00:07:40;21.20;99.90
25092;DHT22;13082;52.374;4.946;2023-06-14T00:10:12;21.10;99.90
25092;DHT22;13082;52.374;4.946;2023-06-14T00:12:38;21.10;99.90
25092;DHT22;13082;52.374;4.946;2023-06-14T00:15:04;21.00;99.90
25092;DHT22;13082;52.374;4.946;2023-06-14T00:17:31;20.90;99.90
25092;DHT22;13082;52.374;4.946;2023-06-14T00:19:57;20.90;99.90
25092;DHT22;13082;52.374;4.946;2023-06-14T00:22:23;20.90;99.90
25092;DHT22;13082;52.374;4.946;2023-06-14T00:24:54;20.90;99.90
25092;DHT22;13082;52.374;4.946;2023-06-14T00:27:20;20.90;99.90
25092;DHT22;13082;52.374;4.946;2023-06-14T00:29:45;20.80;99.90
25092;DHT22;13082;52.374;4.946;2023-06-14T00:32:11;20.80;99.90
25092;DHT22;13082;52.374;4.946;2023-06-14T00:34:36;20.80;99.90
25092;DHT22;13082;52.374;4.946;2023-06-14T00:37:02;20.60;99.90
25092;DHT22;13082;52.374;4.946;2023-06-14T00:39:28;20.60;99.90
25092;DHT22;13082;52.374;4.946;2023-06-14T00:41:53;20.50;99.90
25092;DHT22;13082;52.374;4.946;2023-06-14T00:44:19;20.40;99.90
25092;DHT22;13082;52.374;4.946;2023-06-14T00:46:45;20.30;99.90
25092;DHT22;13082;52.374;4.946;2023-06-14T00:49:13;20.40;99.90
25092;DHT22;13082;52.374;4.946;2023-06-14T00:51:41;20.40;99.90
25092;DHT22;13082;52.374;4.946;2023-06-14T00:54:06;20.50;99.90
25092;DHT22;13082;52.374;4.946;2023-06-14T00:56:32;20.40;99.90
25092;DHT22;13082;52.374;4.946;2023-06-14T00:58:58;20.40;99.90
25092;DHT22;13082;52.374;4.946;2023-06-14T01:01:24;20.50;99.90
25092;DHT22;13082;52.374;4.946;2023-06-14T01:03:49;20.30;99.90
25092;DHT22;13082;52.374;4.946;2023-06-14T01:06:50;20.20;99.90
25092;DHT22;13082;52.374;4.946;2023-06-14T01:09:32;20.20;99.90
25092;DHT22;13082;52.374;4.946;2023-06-14T01:12:14;20.10;99.90
25092;DHT22;13082;52.374;4.946;2023-06-14T01:14:41;20.10;99.90
25092;DHT22;13082;52.374;4.946;2023-06-14T01:17:08;20.10;99.90
25092;DHT22;13082;52.374;4.946;2023-06-14T01:19:41;20.10;99.90
25092;DHT22;13082;52.374;4.946;2023-06-14T01:22:08;20.10;99.90
25092;DHT22;13082;52.374;4.946;2023-06-14T01:24:34;20.00;99.90
25092;DHT22;13082;52.374;4.946;2023-06-14T01:27:01;20.10;99.90
25092;DHT22;13082;52.374;4.946;2023-06-14T01:29:28;20.00;99.90
25092;DHT22;13082;52.374;4.946;2023-06-14T01:32:01;19.90;99.90
25092;DHT22;13082;52.374;4.946;2023-06-14T01:34:27;19.90;99.90
25092;DHT22;13082;52.374;4.946;2023-06-14T01:36:53;19.80;99.90
25092;DHT22;13082;52.374;4.946;2023-06-14T01:39:20;19.80;99.90
25092;DHT22;13082;52.374;4.946;2023-06-14T01:41:47;19.70;99.90
25092;DHT22;13082;52.374;4.946;2023-06-14T01:44:16;19.60;99.90
25092;DHT22;13082;52.374;4.946;2023-06-14T01:46:43;19.70;99.90
25092;DHT22;13082;52.374;4.946;2023-06-14T01:49:11;19.60;99.90
25092;DHT22;13082;52.374;4.946;2023-06-14T01:51:36;19.60;99.90
25092;DHT22;13082;52.374;4.946;2023-06-14T01:54:02;19.60;99.90
25092;DHT22;13082;52.374;4.946;2023-06-14T01:56:28;19.70;99.90
25092;DHT22;13082;52.374;4.946;2023-06-14T01:58:53;19.70;99.90
25092;DHT22;13082;52.374;4.946;2023-06-14T02:01:19;19.80;99.90
25092;DHT22;13082;52.374;4.946;2023-06-14T02:03:47;19.90;99.90
25092;DHT22;13082;52.374;4.946;2023-06-14T02:06:13;19.90;99.90
25092;DHT22;13082;52.374;4.946;2023-06-14T02:08:41;19.90;99.90
25092;DHT22;13082;52.374;4.946;2023-06-14T02:11:08;20.00;99.90
25092;DHT22;13082;52.374;4.946;2023-06-14T02:13:33;20.00;99.90
25092;DHT22;13082;52.374;4.946;2023-06-14T02:16:00;20.00;99.90
25092;DHT22;13082;52.374;4.946;2023-06-14T02:18:26;19.90;99.90
25092;DHT22;13082;52.374;4.946;2023-06-14T02:20:51;19.80;99.90
25092;DHT22;13082;52.374;4.946;2023-06-14T02:23:17;19.80;99.90
25092;DHT22;13082;52.374;4.946;2023-06-14T02:25:43;19.80;99.90
25092;DHT22;13082;52.374;4.946;2023-06-14T02:28:10;19.80;99.90
25092;DHT22;13082;52.374;4.946;2023-06-14T02:30:35;19.70;99.90
25092;DHT22;13082;52.374;4.946;2023-06-14T02:33:01;19.70;99.90
25092;DHT22;13082;52.374;4.946;2023-06-14T02:35:27;19.70;99.90
25092;DHT22;13082;52.374;4.946;2023-06-14T02:37:53;19.60;99.90
25092;DHT22;13082;52.374;4.946;2023-06-14T02:40:19;19.60;99.90
25092;DHT22;13082;52.374;4.946;2023-06-14T02:42:46;19.60;99.90
25092;DHT22;13082;52.374;4.946;2023-06-14T02:45:11;19.60;99.90
25092;DHT22;13082;52.374;4.946;2023-06-14T02:47:37;19.50;99.90
25092;DHT22;13082;52.374;4.946;2023-06-14T02:50:02;19.60;99.90
25092;DHT22;13082;52.374;4.946;2023-06-14T02:52:28;19.60;99.90
25092;DHT22;13082;52.374;4.946;2023-06-14T02:54:54;19.50;99.90
25092;DHT22;13082;52.374;4.946;2023-06-14T02:57:21;19.40;99.90
25092;DHT22;13082;52.374;4.946;2023-06-14T02:59:47;19.40;99.90
25092;DHT22;13082;52.374;4.946;2023-06-14T03:02:12;19.50;99.90
25092;DHT22;13082;52.374;4.946;2023-06-14T03:04:38;19.40;99.90
25092;DHT22;13082;52.374;4.946;2023-06-14T03:07:04;19.30;99.90
25092;DHT22;13082;52.374;4.946;2023-06-14T03:09:39;19.20;99.90
25092;DHT22;13082;52.374;4.946;2023-06-14T03:12:05;19.10;99.90
25092;DHT22;13082;52.374;4.946;2023-06-14T03:14:35;18.90;99.90
25092;DHT22;13082;52.374;4.946;2023-06-14T03:17:01;18.70;99.90
25092;DHT22;13082;52.374;4.946;2023-06-14T03:19:26;18.60;99.90
25092;DHT22;13082;52.374;4.946;2023-06-14T03:21:52;18.60;99.90
25092;DHT22;13082;52.374;4.946;2023-06-14T03:24:19;18.60;99.90
25092;DHT22;13082;52.374;4.946;2023-06-14T03:26:45;18.60;99.90
25092;DHT22;13082;52.374;4.946;2023-06-14T03:29:10;18.60;99.90
25092;DHT22;13082;52.374;4.946;2023-06-14T03:31:36;18.60;99.90
25092;DHT22;13082;52.374;4.946;2023-06-14T03:34:02;18.60;99.90
25092;DHT22;13082;52.374;4.946;2023-06-14T03:36:27;18.40;99.90
25092;DHT22;13082;52.374;4.946;2023-06-14T03:38:54;18.50;99.90
25092;DHT22;13082;52.374;4.946;2023-06-14T03:41:21;18.50;99.90
25092;DHT22;13082;52.374;4.946;2023-06-14T03:43:46;18.30;99.90
25092;DHT22;13082;52.374;4.946;2023-06-14T03:46:12;18.30;99.90
25092;DHT22;13082;52.374;4.946;2023-06-14T03:48:37;18.30;99.90
25092;DHT22;13082;52.374;4.946;2023-06-14T03:51:04;18.30;99.90
25092;DHT22;13082;52.374;4.946;2023-06-14T03:53:30;18.30;99.90
25092;DHT22;13082;52.374;4.946;2023-06-14T03:55:56;18.30;99.90
25092;DHT22;13082;52.374;4.946;2023-06-14T03:58:22;18.30;99.90
25092;DHT22;13082;52.374;4.946;2023-06-14T04:00:48;18.30;99.90
25092;DHT22;13082;52.374;4.946;2023-06-14T04:03:13;18.40;99.90
25092;DHT22;13082;52.374;4.946;2023-06-14T04:05:41;18.40;99.90
25092;DHT22;13082;52.374;4.946;2023-06-14T04:08:08;18.30;99.90
25092;DHT22;13082;52.374;4.946;2023-06-14T04:10:34;18.20;99.90
25092;DHT22;13082;52.374;4.946;2023-06-14T04:13:00;18.20;99.90
25092;DHT22;13082;52.374;4.946;2023-06-14T04:15:25;18.10;99.90
25092;DHT22;13082;52.374;4.946;2023-06-14T04:17:53;18.20;99.90
25092;DHT22;13082;52.374;4.946;2023-06-14T04:20:23;18.10;99.90
25092;DHT22;13082;52.374;4.946;2023-06-14T04:22:50;18.20;99.90
25092;DHT22;13082;52.374;4.946;2023-06-14T04:25:16;18.20;99.90
25092;DHT22;13082;52.374;4.946;2023-06-14T04:27:42;18.30;99.90
25092;DHT22;13082;52.374;4.946;2023-06-14T04:30:09;18.30;99.90
25092;DHT22;13082;52.374;4.946;2023-06-14T04:32:35;18.20;99.90
25092;DHT22;13082;52.374;4.946;2023-06-14T04:35:05;18.30;99.90
25092;DHT22;13082;52.374;4.946;2023-06-14T04:37:31;18.30;99.90
25092;DHT22;13082;52.374;4.946;2023-06-14T04:39:57;18.10;99.90
25092;DHT22;13082;52.374;4.946;2023-06-14T04:42:23;18.10;99.90
25092;DHT22;13082;52.374;4.946;2023-06-14T04:44:56;18.20;99.90
25092;DHT22;13082;52.374;4.946;2023-06-14T04:47:22;18.30;99.90
25092;DHT22;13082;52.374;4.946;2023-06-14T04:49:50;18.30;99.90
25092;DHT22;13082;52.374;4.946;2023-06-14T04:52:17;18.30;99.90
25092;DHT22;13082;52.374;4.946;2023-06-14T04:54:46;18.20;99.90
25092;DHT22;13082;52.374;4.946;2023-06-14T04:57:12;18.10;99.90
25092;DHT22;13082;52.374;4.946;2023-06-14T04:59:40;18.10;99.90
25092;DHT22;13082;52.374;4.946;2023-06-14T05:02:05;18.10;99.90
25092;DHT22;13082;52.374;4.946;2023-06-14T05:04:32;18.00;99.90
25092;DHT22;13082;52.374;4.946;2023-06-14T05:06:58;18.10;99.90
25092;DHT22;13082;52.374;4.946;2023-06-14T05:09:24;18.00;99.90
25092;DHT22;13082;52.374;4.946;2023-06-14T05:11:50;18.00;99.90
25092;DHT22;13082;52.374;4.946;2023-06-14T05:14:15;18.00;99.90
25092;DHT22;13082;52.374;4.946;2023-06-14T05:16:41;18.00;99.90
25092;DHT22;13082;52.374;4.946;2023-06-14T05:19:08;18.10;99.90
25092;DHT22;13082;52.374;4.946;2023-06-14T05:21:33;18.20;99.90
25092;DHT22;13082;52.374;4.946;2023-06-14T05:24:00;18.20;99.90
25092;DHT22;13082;52.374;4.946;2023-06-14T05:26:26;18.10;99.90
25092;DHT22;13082;52.374;4.946;2023-06-14T05:28:55;18.20;99.90
25092;DHT22;13082;52.374;4.946;2023-06-14T05:31:25;18.20;99.90
25092;DHT22;13082;52.374;4.946;2023-06-14T05:33:51;18.40;99.90
25092;DHT22;13082;52.374;4.946;2023-06-14T05:36:17;18.50;99.90
25092;DHT22;13082;52.374;4.946;2023-06-14T05:38:42;18.50;99.90
25092;DHT22;13082;52.374;4.946;2023-06-14T05:41:08;18.60;99.90
25092;DHT22;13082;52.374;4.946;2023-06-14T05:43:34;18.50;99.90
25092;DHT22;13082;52.374;4.946;2023-06-14T05:45:59;18.50;99.90
25092;DHT22;13082;52.374;4.946;2023-06-14T05:48:25;18.40;99.90
25092;DHT22;13082;52.374;4.946;2023-06-14T05:50:51;18.40;99.90
25092;DHT22;13082;52.374;4.946;2023-06-14T05:53:16;18.40;99.90
25092;DHT22;13082;52.374;4.946;2023-06-14T05:55:42;18.50;99.90
25092;DHT22;13082;52.374;4.946;2023-06-14T05:58:08;18.60;99.90
25092;DHT22;13082;52.374;4.946;2023-06-14T06:00:33;18.60;99.90
25092;DHT22;13082;52.374;4.946;2023-06-14T06:02:59;18.70;99.90
25092;DHT22;13082;52.374;4.946;2023-06-14T06:05:26;18.80;99.90
25092;DHT22;13082;52.374;4.946;2023-06-14T06:07:51;18.80;99.90
25092;DHT22;13082;52.374;4.946;2023-06-14T06:10:17;18.90;99.90
25092;DHT22;13082;52.374;4.946;2023-06-14T06:12:43;18.80;99.90
25092;DHT22;13082;52.374;4.946;2023-06-14T06:15:09;18.80;99.90
25092;DHT22;13082;52.374;4.946;2023-06-14T06:17:37;18.90;99.90
25092;DHT22;13082;52.374;4.946;2023-06-14T06:20:04;18.90;99.90
25092;DHT22;13082;52.374;4.946;2023-06-14T06:22:31;18.90;99.90
25092;DHT22;13082;52.374;4.946;2023-06-14T06:24:56;18.90;99.90
25092;DHT22;13082;52.374;4.946;2023-06-14T06:27:22;19.00;99.90
25092;DHT22;13082;52.374;4.946;2023-06-14T06:29:48;19.00;99.90
25092;DHT22;13082;52.374;4.946;2023-06-14T06:32:15;19.10;99.90
25092;DHT22;13082;52.374;4.946;2023-06-14T06:34:40;19.20;99.90
25092;DHT22;13082;52.374;4.946;2023-06-14T06:37:06;19.20;99.90
25092;DHT22;13082;52.374;4.946;2023-06-14T06:39:32;19.30;99.90
25092;DHT22;13082;52.374;4.946;2023-06-14T06:41:58;19.40;99.90
25092;DHT22;13082;52.374;4.946;2023-06-14T06:44:24;19.50;99.90
25092;DHT22;13082;52.374;4.946;2023-06-14T06:46:49;19.70;99.90
25092;DHT22;13082;52.374;4.946;2023-06-14T06:49:15;19.60;99.90
25092;DHT22;13082;52.374;4.946;2023-06-14T06:51:42;19.60;99.90
25092;DHT22;13082;52.374;4.946;2023-06-14T06:54:08;19.70;99.90
25092;DHT22;13082;52.374;4.946;2023-06-14T06:56:35;19.60;99.90
25092;DHT22;13082;52.374;4.946;2023-06-14T06:59:00;19.70;99.90
25092;DHT22;13082;52.374;4.946;2023-06-14T07:01:26;19.80;99.90
25092;DHT22;13082;52.374;4.946;2023-06-14T07:03:54;19.80;99.90
25092;DHT22;13082;52.374;4.946;2023-06-14T07:06:21;19.80;99.90
25092;DHT22;13082;52.374;4.946;2023-06-14T07:08:47;19.90;99.90
25092;DHT22;13082;52.374;4.946;2023-06-14T07:11:14;19.90;99.90
25092;DHT22;13082;52.374;4.946;2023-06-14T07:13:40;20.00;99.90
25092;DHT22;13082;52.374;4.946;2023-06-14T07:16:05;20.00;99.90
25092;DHT22;13082;52.374;4.946;2023-06-14T07:18:31;20.10;99.90
25092;DHT22;13082;52.374;4.946;2023-06-14T07:20:57;20.20;99.90
25092;DHT22;13082;52.374;4.946;2023-06-14T07:23:23;20.30;99.90
25092;DHT22;13082;52.374;4.946;2023-06-14T07:25:49;20.40;99.90
25092;DHT22;13082;52.374;4.946;2023-06-14T07:28:16;20.40;99.90
25092;DHT22;13082;52.374;4.946;2023-06-14T07:30:41;20.50;99.90
25092;DHT22;13082;52.374;4.946;2023-06-14T07:33:07;20.50;99.90
25092;DHT22;13082;52.374;4.946;2023-06-14T07:35:33;20.50;99.90
25092;DHT22;13082;52.374;4.946;2023-06-14T07:37:59;20.60;99.90
25092;DHT22;13082;52.374;4.946;2023-06-14T07:40:25;20.70;99.90
25092;DHT22;13082;52.374;4.946;2023-06-14T07:42:50;20.70;99.90
25092;DHT22;13082;52.374;4.946;2023-06-14T07:45:16;20.80;99.90
25092;DHT22;13082;52.374;4.946;2023-06-14T07:47:42;20.90;99.90
25092;DHT22;13082;52.374;4.946;2023-06-14T07:50:08;21.00;99.90
25092;DHT22;13082;52.374;4.946;2023-06-14T07:52:34;21.10;99.90
25092;DHT22;13082;52.374;4.946;2023-06-14T07:55:00;21.10;99.90
25092;DHT22;13082;52.374;4.946;2023-06-14T07:57:25;21.30;99.90
25092;DHT22;13082;52.374;4.946;2023-06-14T07:59:51;21.30;99.90
25092;DHT22;13082;52.374;4.946;2023-06-14T08:02:18;21.40;99.90
25092;DHT22;13082;52.374;4.946;2023-06-14T08:04:43;21.50;99.90
25092;DHT22;13082;52.374;4.946;2023-06-14T08:07:09;21.50;99.90
25092;DHT22;13082;52.374;4.946;2023-06-14T08:09:35;21.60;99.90
25092;DHT22;13082;52.374;4.946;2023-06-14T08:12:04;21.70;99.90
25092;DHT22;13082;52.374;4.946;2023-06-14T08:14:33;21.80;99.90
25092;DHT22;13082;52.374;4.946;2023-06-14T08:16:58;21.90;99.90
25092;DHT22;13082;52.374;4.946;2023-06-14T08:19:24;22.00;99.90
25092;DHT22;13082;52.374;4.946;2023-06-14T08:21:50;22.10;99.90
25092;DHT22;13082;52.374;4.946;2023-06-14T08:24:16;22.00;99.90
25092;DHT22;13082;52.374;4.946;2023-06-14T08:26:42;22.20;99.90
25092;DHT22;13082;52.374;4.946;2023-06-14T08:29:08;22.40;99.90
25092;DHT22;13082;52.374;4.946;2023-06-14T08:31:34;22.40;99.90
25092;DHT22;13082;52.374;4.946;2023-06-14T08:33:59;22.40;99.90
25092;DHT22;13082;52.374;4.946;2023-06-14T08:36:25;22.50;99.90
25092;DHT22;13082;52.374;4.946;2023-06-14T08:38:50;22.60;99.90
25092;DHT22;13082;52.374;4.946;2023-06-14T08:41:25;22.60;99.90
25092;DHT22;13082;52.374;4.946;2023-06-14T08:43:52;22.70;99.90
25092;DHT22;13082;52.374;4.946;2023-06-14T08:46:18;22.60;99.90
25092;DHT22;13082;52.374;4.946;2023-06-14T08:48:51;22.80;99.90
25092;DHT22;13082;52.374;4.946;2023-06-14T08:51:21;22.90;99.90
25092;DHT22;13082;52.374;4.946;2023-06-14T08:53:55;22.90;99.90
25092;DHT22;13082;52.374;4.946;2023-06-14T08:56:26;22.90;99.90
25092;DHT22;13082;52.374;4.946;2023-06-14T08:58:53;23.00;99.90
25092;DHT22;13082;52.374;4.946;2023-06-14T09:01:20;23.10;99.90
25092;DHT22;13082;52.374;4.946;2023-06-14T09:03:48;23.10;99.90
25092;DHT22;13082;52.374;4.946;2023-06-14T09:06:14;23.20;99.90
25092;DHT22;13082;52.374;4.946;2023-06-14T09:08:42;23.30;99.90
25092;DHT22;13082;52.374;4.946;2023-06-14T09:11:11;23.20;99.90
25092;DHT22;13082;52.374;4.946;2023-06-14T09:13:38;23.20;99.90
25092;DHT22;13082;52.374;4.946;2023-06-14T09:16:05;23.30;99.90
25092;DHT22;13082;52.374;4.946;2023-06-14T09:18:41;23.50;99.90
25092;DHT22;13082;52.374;4.946;2023-06-14T09:21:09;23.60;99.90
25092;DHT22;13082;52.374;4.946;2023-06-14T09:23:45;23.60;99.90
25092;DHT22;13082;52.374;4.946;2023-06-14T09:26:16;23.60;99.90
25092;DHT22;13082;52.374;4.946;2023-06-14T09:28:46;23.70;99.90
25092;DHT22;13082;52.374;4.946;2023-06-14T09:31:16;23.80;99.90
25092;DHT22;13082;52.374;4.946;2023-06-14T09:33:45;23.90;99.90
25092;DHT22;13082;52.374;4.946;2023-06-14T09:36:21;23.90;99.90
25092;DHT22;13082;52.374;4.946;2023-06-14T09:39:01;24.00;99.90
25092;DHT22;13082;52.374;4.946;2023-06-14T09:41:35;24.10;99.90
25092;DHT22;13082;52.374;4.946;2023-06-14T09:44:03;24.20;99.90
25092;DHT22;13082;52.374;4.946;2023-06-14T09:46:30;24.20;99.90
25092;DHT22;13082;52.374;4.946;2023-06-14T09:48:58;24.20;99.90
25092;DHT22;13082;52.374;4.946;2023-06-14T09:51:25;24.30;99.90
25092;DHT22;13082;52.374;4.946;2023-06-14T09:53:52;24.30;99.90
25092;DHT22;13082;52.374;4.946;2023-06-14T09:56:37;24.40;99.90
25092;DHT22;13082;52.374;4.946;2023-06-14T09:59:06;24.30;99.90
25092;DHT22;13082;52.374;4.946;2023-06-14T10:01:35;24.10;99.90
25092;DHT22;13082;52.374;4.946;2023-06-14T10:04:06;24.10;99.90
25092;DHT22;13082;52.374;4.946;2023-06-14T10:06:40;24.10;99.90
25092;DHT22;13082;52.374;4.946;2023-06-14T10:09:09;24.30;99.90
25092;DHT22;13082;52.374;4.946;2023-06-14T10:11:35;24.50;99.90
25092;DHT22;13082;52.374;4.946;2023-06-14T10:14:03;24.50;99.90
25092;DHT22;13082;52.374;4.946;2023-06-14T10:16:56;24.40;99.90
25092;DHT22;13082;52.374;4.946;2023-06-14T10:19:25;24.50;99.90
25092;DHT22;13082;52.374;4.946;2023-06-14T10:22:17;24.50;99.90
25092;DHT22;13082;52.374;4.946;2023-06-14T10:24:45;24.60;99.90
25092;DHT22;13082;52.374;4.946;2023-06-14T10:27:14;24.70;99.90
25092;DHT22;13082;52.374;4.946;2023-06-14T10:32:25;24.70;99.90
25092;DHT22;13082;52.374;4.946;2023-06-14T10:35:05;24.70;99.90
25092;DHT22;13082;52.374;4.946;2023-06-14T10:37:31;24.70;99.90
25092;DHT22;13082;52.374;4.946;2023-06-14T10:39:57;24.70;99.90
25092;DHT22;13082;52.374;4.946;2023-06-14T10:42:29;24.80;99.90
25092;DHT22;13082;52.374;4.946;2023-06-14T10:44:57;24.70;99.90
25092;DHT22;13082;52.374;4.946;2023-06-14T10:47:33;24.70;99.90
25092;DHT22;13082;52.374;4.946;2023-06-14T10:50:08;24.70;99.90
25092;DHT22;13082;52.374;4.946;2023-06-14T10:52:41;24.70;99.90
25092;DHT22;13082;52.374;4.946;2023-06-14T10:55:14;24.70;99.90
25092;DHT22;13082;52.374;4.946;2023-06-14T10:57:45;24.80;99.90
25092;DHT22;13082;52.374;4.946;2023-06-14T11:00:12;24.80;99.90
25092;DHT22;13082;52.374;4.946;2023-06-14T11:11:14;24.70;99.90
25092;DHT22;13082;52.374;4.946;2023-06-14T11:13:45;24.80;99.90
25092;DHT22;13082;52.374;4.946;2023-06-14T11:16:15;24.80;99.90
25092;DHT22;13082;52.374;4.946;2023-06-14T11:18:42;24.90;99.90
25092;DHT22;13082;52.374;4.946;2023-06-14T11:21:08;24.90;99.90
25092;DHT22;13082;52.374;4.946;2023-06-14T11:23:37;24.90;99.90
25092;DHT22;13082;52.374;4.946;2023-06-14T11:26:03;25.00;99.90
25092;DHT22;13082;52.374;4.946;2023-06-14T11:28:40;25.00;99.90
25092;DHT22;13082;52.374;4.946;2023-06-14T11:31:06;25.20;99.90
25092;DHT22;13082;52.374;4.946;2023-06-14T11:33:32;25.30;99.90
25092;DHT22;13082;52.374;4.946;2023-06-14T11:35:58;25.40;99.90
25092;DHT22;13082;52.374;4.946;2023-06-14T11:38:25;25.40;99.90
25092;DHT22;13082;52.374;4.946;2023-06-14T11:40:51;25.40;99.90
25092;DHT22;13082;52.374;4.946;2023-06-14T11:43:17;25.40;99.90
25092;DHT22;13082;52.374;4.946;2023-06-14T11:45:42;25.50;99.90
25092;DHT22;13082;52.374;4.946;2023-06-14T11:48:08;25.40;99.90
25092;DHT22;13082;52.374;4.946;2023-06-14T11:50:37;25.40;99.90
25092;DHT22;13082;52.374;4.946;2023-06-14T11:53:04;25.40;99.90
25092;DHT22;13082;52.374;4.946;2023-06-14T11:55:38;25.40;99.90
25092;DHT22;13082;52.374;4.946;2023-06-14T11:58:06;25.40;99.90
25092;DHT22;13082;52.374;4.946;2023-06-14T12:00:31;25.50;99.90
25092;DHT22;13082;52.374;4.946;2023-06-14T12:02:57;25.50;99.90
25092;DHT22;13082;52.374;4.946;2023-06-14T12:05:24;25.50;99.90
25092;DHT22;13082;52.374;4.946;2023-06-14T12:07:58;25.40;99.90
25092;DHT22;13082;52.374;4.946;2023-06-14T12:10:26;25.40;99.90
25092;DHT22;13082;52.374;4.946;2023-06-14T12:12:59;25.50;99.90
25092;DHT22;13082;52.374;4.946;2023-06-14T12:15:28;25.60;99.90
25092;DHT22;13082;52.374;4.946;2023-06-14T12:17:54;25.60;99.90
25092;DHT22;13082;52.374;4.946;2023-06-14T12:20:20;25.70;99.90
25092;DHT22;13082;52.374;4.946;2023-06-14T12:22:58;25.60;99.90
25092;DHT22;13082;52.374;4.946;2023-06-14T12:25:35;25.40;99.90
25092;DHT22;13082;52.374;4.946;2023-06-14T12:28:06;25.40;99.90
25092;DHT22;13082;52.374;4.946;2023-06-14T12:30:32;25.40;99.90
25092;DHT22;13082;52.374;4.946;2023-06-14T12:32:58;25.40;99.90
25092;DHT22;13082;52.374;4.946;2023-06-14T12:35:24;25.50;99.90
25092;DHT22;13082;52.374;4.946;2023-06-14T12:37:50;25.60;99.90
25092;DHT22;13082;52.374;4.946;2023-06-14T12:40:15;25.60;99.90
25092;DHT22;13082;52.374;4.946;2023-06-14T12:42:41;25.60;99.90
25092;DHT22;13082;52.374;4.946;2023-06-14T12:45:08;25.60;99.90
25092;DHT22;13082;52.374;4.946;2023-06-14T12:47:34;25.70;99.90
25092;DHT22;13082;52.374;4.946;2023-06-14T12:49:59;25.70;99.90
25092;DHT22;13082;52.374;4.946;2023-06-14T12:52:25;25.70;99.90
25092;DHT22;13082;52.374;4.946;2023-06-14T12:54:50;25.60;99.90
25092;DHT22;13082;52.374;4.946;2023-06-14T12:57:16;25.60;99.90
25092;DHT22;13082;52.374;4.946;2023-06-14T12:59:42;25.60;99.90
25092;DHT22;13082;52.374;4.946;2023-06-14T13:02:12;25.60;99.90
25092;DHT22;13082;52.374;4.946;2023-06-14T13:04:38;25.60;99.90
25092;DHT22;13082;52.374;4.946;2023-06-14T13:07:04;25.60;99.90
25092;DHT22;13082;52.374;4.946;2023-06-14T13:09:30;25.50;99.90
25092;DHT22;13082;52.374;4.946;2023-06-14T13:11:55;25.60;99.90
25092;DHT22;13082;52.374;4.946;2023-06-14T13:14:21;25.60;99.90
25092;DHT22;13082;52.374;4.946;2023-06-14T13:16:46;25.60;99.90
25092;DHT22;13082;52.374;4.946;2023-06-14T13:19:12;25.50;99.90
25092;DHT22;13082;52.374;4.946;2023-06-14T13:21:38;25.50;99.90
25092;DHT22;13082;52.374;4.946;2023-06-14T13:24:03;25.50;99.90
25092;DHT22;13082;52.374;4.946;2023-06-14T13:26:29;25.50;99.90
25092;DHT22;13082;52.374;4.946;2023-06-14T13:28:55;25.50;99.90
25092;DHT22;13082;52.374;4.946;2023-06-14T13:31:20;25.60;99.90
25092;DHT22;13082;52.374;4.946;2023-06-14T13:33:46;25.60;99.90
25092;DHT22;13082;52.374;4.946;2023-06-14T13:36:12;25.70;99.90
25092;DHT22;13082;52.374;4.946;2023-06-14T13:38:37;25.70;99.90
25092;DHT22;13082;52.374;4.946;2023-06-14T13:41:03;25.70;99.90
25092;DHT22;13082;52.374;4.946;2023-06-14T13:43:28;25.80;99.90
25092;DHT22;13082;52.374;4.946;2023-06-14T13:45:54;25.70;99.90
25092;DHT22;13082;52.374;4.946;2023-06-14T13:48:19;25.80;99.90
25092;DHT22;13082;52.374;4.946;2023-06-14T13:50:45;25.80;99.90
25092;DHT22;13082;52.374;4.946;2023-06-14T13:53:11;25.80;99.90
25092;DHT22;13082;52.374;4.946;2023-06-14T13:55:37;25.80;99.90
25092;DHT22;13082;52.374;4.946;2023-06-14T13:58:02;25.70;99.90
25092;DHT22;13082;52.374;4.946;2023-06-14T14:00:28;25.60;99.90
25092;DHT22;13082;52.374;4.946;2023-06-14T14:02:54;25.60;99.90
25092;DHT22;13082;52.374;4.946;2023-06-14T14:05:20;25.70;99.90
25092;DHT22;13082;52.374;4.946;2023-06-14T14:07:46;25.60;99.90
25092;DHT22;13082;52.374;4.946;2023-06-14T14:10:12;25.50;99.90
25092;DHT22;13082;52.374;4.946;2023-06-14T14:12:38;25.50;99.90
25092;DHT22;13082;52.374;4.946;2023-06-14T14:15:05;25.50;99.90
25092;DHT22;13082;52.374;4.946;2023-06-14T14:17:38;25.50;99.90
25092;DHT22;13082;52.374;4.946;2023-06-14T14:20:03;25.30;99.90
25092;DHT22;13082;52.374;4.946;2023-06-14T14:22:29;25.40;99.90
25092;DHT22;13082;52.374;4.946;2023-06-14T14:24:55;25.40;99.90
25092;DHT22;13082;52.374;4.946;2023-06-14T14:27:20;25.40;99.90
25092;DHT22;13082;52.374;4.946;2023-06-14T14:29:46;25.40;99.90
25092;DHT22;13082;52.374;4.946;2023-06-14T14:32:12;25.40;99.90
25092;DHT22;13082;52.374;4.946;2023-06-14T14:34:39;25.40;99.90
25092;DHT22;13082;52.374;4.946;2023-06-14T14:37:05;25.50;99.90
25092;DHT22;13082;52.374;4.946;2023-06-14T14:39:31;25.50;99.90
25092;DHT22;13082;52.374;4.946;2023-06-14T14:41:56;25.40;99.90
25092;DHT22;13082;52.374;4.946;2023-06-14T14:44:22;25.40;99.90
25092;DHT22;13082;52.374;4.946;2023-06-14T14:46:47;25.40;99.90
25092;DHT22;13082;52.374;4.946;2023-06-14T14:49:13;25.40;99.90
25092;DHT22;13082;52.374;4.946;2023-06-14T14:51:39;25.40;99.90
25092;DHT22;13082;52.374;4.946;2023-06-14T14:54:05;25.50;99.90
25092;DHT22;13082;52.374;4.946;2023-06-14T14:56:31;25.60;99.90
25092;DHT22;13082;52.374;4.946;2023-06-14T14:58:57;25.40;99.90
25092;DHT22;13082;52.374;4.946;2023-06-14T15:01:23;25.40;99.90
25092;DHT22;13082;52.374;4.946;2023-06-14T15:03:50;25.50;99.90
25092;DHT22;13082;52.374;4.946;2023-06-14T15:06:16;25.50;99.90
25092;DHT22;13082;52.374;4.946;2023-06-14T15:08:43;25.60;99.90
25092;DHT22;13082;52.374;4.946;2023-06-14T15:11:09;25.60;99.90
25092;DHT22;13082;52.374;4.946;2023-06-14T15:13:34;25.50;99.90
25092;DHT22;13082;52.374;4.946;2023-06-14T15:16:00;25.60;99.90
25092;DHT22;13082;52.374;4.946;2023-06-14T15:18:26;25.60;99.90
25092;DHT22;13082;52.374;4.946;2023-06-14T15:20:52;25.60;99.90
25092;DHT22;13082;52.374;4.946;2023-06-14T15:23:17;25.60;99.90
25092;DHT22;13082;52.374;4.946;2023-06-14T15:25:46;25.50;99.90
25092;DHT22;13082;52.374;4.946;2023-06-14T15:28:14;25.40;99.90
25092;DHT22;13082;52.374;4.946;2023-06-14T15:30:40;25.40;99.90
25092;DHT22;13082;52.374;4.946;2023-06-14T15:33:06;25.30;99.90
25092;DHT22;13082;52.374;4.946;2023-06-14T15:35:32;25.30;99.90
25092;DHT22;13082;52.374;4.946;2023-06-14T15:37:57;25.40;99.90
25092;DHT22;13082;52.374;4.946;2023-06-14T15:40:23;25.40;99.90